AGJ920 LICR-LIPX
Flight info
| Callsign | AGJ920 |
|---|---|
| Flight time | N/A |
| Altitude | 320 |
| Route | PAZE1P AGNIS SIPRO GENGI ROSUV PETAS KREVA TAGHE OSTE1X |
| Aircraft | A319/M-SDE3FG/L |
Departure
| Time | N/A |
|---|---|
| Airport | Reggio Calabria Airport (LICR) |
Arrival
| Time | 2026-04-24 19:56 |
|---|---|
| Airport | Verona Villafranca Valerio Catullo Airport (LIPX) |
| Time | Latitude | Longitude | Altitude | Speed | Heading |
|---|---|---|---|---|---|
| 2026-04-24 18:54 | 40.13852 | 14.53932 | 32087 ft | 457 kts | 336° |
| 2026-04-24 18:55 | 40.22426 | 14.48416 | 32085 ft | 460 kts | 336° |
| 2026-04-24 18:56 | 40.28155 | 14.44720 | 32079 ft | 460 kts | 336° |
| 2026-04-24 18:56 | 40.33914 | 14.41000 | 32084 ft | 460 kts | 336° |
| 2026-04-24 18:57 | 40.39623 | 14.37303 | 32085 ft | 460 kts | 336° |
| 2026-04-24 18:57 | 40.45371 | 14.33576 | 32089 ft | 461 kts | 336° |
| 2026-04-24 18:58 | 40.51134 | 14.29829 | 32085 ft | 461 kts | 336° |
| 2026-04-24 18:58 | 40.56892 | 14.26080 | 32089 ft | 461 kts | 336° |
| 2026-04-24 18:59 | 40.62606 | 14.22352 | 32088 ft | 461 kts | 336° |
| 2026-04-24 18:59 | 40.68315 | 14.18621 | 32090 ft | 462 kts | 336° |
| 2026-04-24 19:00 | 40.74119 | 14.14820 | 32086 ft | 464 kts | 336° |
| 2026-04-24 19:00 | 40.78929 | 14.11665 | 32094 ft | 464 kts | 336° |
| 2026-04-24 19:01 | 40.84695 | 14.07874 | 32086 ft | 464 kts | 336° |
| 2026-04-24 19:01 | 40.90479 | 14.04066 | 32082 ft | 464 kts | 336° |
| 2026-04-24 19:02 | 40.96268 | 14.00245 | 32082 ft | 465 kts | 336° |
| 2026-04-24 19:02 | 41.02054 | 13.96419 | 32071 ft | 465 kts | 336° |
| 2026-04-24 19:03 | 41.07842 | 13.92586 | 32075 ft | 464 kts | 336° |
| 2026-04-24 19:03 | 41.13618 | 13.88751 | 32077 ft | 464 kts | 336° |
| 2026-04-24 19:04 | 41.19362 | 13.84931 | 32081 ft | 464 kts | 336° |
| 2026-04-24 19:04 | 41.25138 | 13.81082 | 32083 ft | 464 kts | 336° |
| 2026-04-24 19:05 | 41.30912 | 13.77227 | 32081 ft | 465 kts | 336° |
| 2026-04-24 19:05 | 41.36728 | 13.73335 | 32095 ft | 466 kts | 336° |
| 2026-04-24 19:06 | 41.42512 | 13.69458 | 32098 ft | 465 kts | 336° |
| 2026-04-24 19:06 | 41.48300 | 13.65622 | 32095 ft | 465 kts | 338° |
| 2026-04-24 19:07 | 41.54152 | 13.61891 | 32089 ft | 464 kts | 337° |
| 2026-04-24 19:07 | 41.59923 | 13.58102 | 32083 ft | 464 kts | 337° |
| 2026-04-24 19:08 | 41.65741 | 13.54340 | 32082 ft | 465 kts | 337° |
| 2026-04-24 19:08 | 41.71558 | 13.50530 | 32079 ft | 464 kts | 337° |
| 2026-04-24 19:09 | 41.77374 | 13.46737 | 32086 ft | 465 kts | 337° |
| 2026-04-24 19:09 | 41.83176 | 13.42934 | 32093 ft | 463 kts | 337° |
| 2026-04-24 19:10 | 41.88986 | 13.39122 | 32105 ft | 465 kts | 337° |
| 2026-04-24 19:10 | 41.94801 | 13.35298 | 32107 ft | 465 kts | 337° |
| 2026-04-24 19:11 | 42.00590 | 13.31484 | 32118 ft | 464 kts | 337° |
| 2026-04-24 19:11 | 42.06374 | 13.27665 | 32121 ft | 464 kts | 337° |
| 2026-04-24 19:12 | 42.12181 | 13.23822 | 32113 ft | 464 kts | 337° |
| 2026-04-24 19:12 | 42.17973 | 13.19983 | 32121 ft | 464 kts | 337° |
| 2026-04-24 19:13 | 42.22796 | 13.16779 | 32105 ft | 463 kts | 337° |
| 2026-04-24 19:13 | 42.29527 | 13.12297 | 32096 ft | 463 kts | 337° |
| 2026-04-24 19:14 | 42.31518 | 13.10971 | 32090 ft | 463 kts | 337° |
| 2026-04-24 19:14 | 42.37286 | 13.07122 | 32079 ft | 463 kts | 337° |
| 2026-04-24 19:15 | 42.42979 | 13.02981 | 32074 ft | 465 kts | 334° |
| 2026-04-24 19:15 | 42.48641 | 12.98786 | 32075 ft | 465 kts | 334° |
| 2026-04-24 19:16 | 42.57100 | 12.92351 | 32073 ft | 464 kts | 334° |
| 2026-04-24 19:16 | 42.62749 | 12.88092 | 32080 ft | 465 kts | 334° |
| 2026-04-24 19:17 | 42.68391 | 12.83788 | 32086 ft | 465 kts | 334° |
| 2026-04-24 19:17 | 42.74029 | 12.79507 | 32091 ft | 465 kts | 334° |
| 2026-04-24 19:18 | 42.79664 | 12.75204 | 32101 ft | 465 kts | 334° |
| 2026-04-24 19:18 | 42.84474 | 12.71528 | 32096 ft | 465 kts | 334° |
| 2026-04-24 19:19 | 42.90116 | 12.67207 | 32075 ft | 466 kts | 334° |
| 2026-04-24 19:19 | 42.95769 | 12.62869 | 32081 ft | 466 kts | 334° |
| 2026-04-24 19:20 | 43.01422 | 12.58521 | 32075 ft | 466 kts | 334° |
| 2026-04-24 19:20 | 43.07066 | 12.54170 | 32074 ft | 466 kts | 334° |
| 2026-04-24 19:21 | 43.12707 | 12.49813 | 32069 ft | 466 kts | 334° |
| 2026-04-24 19:21 | 43.18354 | 12.45442 | 32064 ft | 466 kts | 334° |
| 2026-04-24 19:22 | 43.23985 | 12.41074 | 32071 ft | 465 kts | 334° |
| 2026-04-24 19:22 | 43.29619 | 12.36694 | 32078 ft | 466 kts | 334° |
| 2026-04-24 19:23 | 43.35258 | 12.32301 | 32087 ft | 465 kts | 334° |
| 2026-04-24 19:23 | 43.40886 | 12.27907 | 32089 ft | 465 kts | 334° |
| 2026-04-24 19:24 | 43.46509 | 12.23508 | 32092 ft | 465 kts | 334° |
| 2026-04-24 19:24 | 43.52134 | 12.19098 | 32095 ft | 465 kts | 333° |
| 2026-04-24 19:25 | 43.57747 | 12.14686 | 32095 ft | 464 kts | 333° |
| 2026-04-24 19:25 | 43.63325 | 12.10294 | 32095 ft | 464 kts | 333° |
| 2026-04-24 19:26 | 43.68942 | 12.05907 | 32099 ft | 463 kts | 336° |
| 2026-04-24 19:26 | 43.74618 | 12.01679 | 32102 ft | 464 kts | 334° |
| 2026-04-24 19:27 | 43.80284 | 11.97425 | 32097 ft | 463 kts | 335° |
| 2026-04-24 19:27 | 43.85963 | 11.93212 | 32092 ft | 463 kts | 334° |
| 2026-04-24 19:28 | 43.91621 | 11.88947 | 32083 ft | 463 kts | 335° |
| 2026-04-24 19:28 | 43.97286 | 11.84717 | 32075 ft | 463 kts | 334° |
| 2026-04-24 19:29 | 44.05775 | 11.78320 | 32066 ft | 463 kts | 334° |
| 2026-04-24 19:30 | 44.11431 | 11.74048 | 32075 ft | 462 kts | 334° |
| 2026-04-24 19:30 | 44.17048 | 11.69800 | 32081 ft | 461 kts | 334° |
| 2026-04-24 19:31 | 44.22681 | 11.65533 | 32099 ft | 461 kts | 334° |
| 2026-04-24 19:31 | 44.28311 | 11.61252 | 32116 ft | 461 kts | 334° |
| 2026-04-24 19:32 | 44.33249 | 11.57495 | 32086 ft | 461 kts | 334° |
| 2026-04-24 19:32 | 44.38871 | 11.53204 | 32062 ft | 460 kts | 334° |
| 2026-04-24 19:33 | 44.43549 | 11.49625 | 32047 ft | 461 kts | 334° |
| 2026-04-24 19:33 | 44.50054 | 11.44640 | 32018 ft | 461 kts | 334° |
| 2026-04-24 19:34 | 44.55683 | 11.40314 | 32015 ft | 461 kts | 334° |
| 2026-04-24 19:34 | 44.58442 | 11.38188 | 31529 ft | 449 kts | 333° |
| 2026-04-24 19:34 | 44.61192 | 11.36071 | 30559 ft | 452 kts | 333° |
| 2026-04-24 19:34 | 44.63943 | 11.33952 | 29518 ft | 451 kts | 333° |
| 2026-04-24 19:35 | 44.66696 | 11.31826 | 28454 ft | 451 kts | 333° |
| 2026-04-24 19:35 | 44.69451 | 11.29694 | 27424 ft | 451 kts | 333° |
| 2026-04-24 19:35 | 44.72188 | 11.27576 | 26432 ft | 448 kts | 333° |
| 2026-04-24 19:35 | 44.74908 | 11.25469 | 25468 ft | 444 kts | 332° |
| 2026-04-24 19:36 | 44.77699 | 11.23676 | 24518 ft | 439 kts | 345° |
| 2026-04-24 19:36 | 44.80684 | 11.22926 | 23639 ft | 433 kts | 354° |
| 2026-04-24 19:36 | 44.83663 | 11.22450 | 22583 ft | 429 kts | 355° |
| 2026-04-24 19:36 | 44.86620 | 11.22011 | 21546 ft | 425 kts | 354° |
| 2026-04-24 19:37 | 44.89546 | 11.21533 | 20547 ft | 420 kts | 354° |
| 2026-04-24 19:37 | 44.92429 | 11.21037 | 19580 ft | 415 kts | 354° |
| 2026-04-24 19:37 | 44.95282 | 11.20563 | 18640 ft | 410 kts | 354° |
| 2026-04-24 19:37 | 44.98099 | 11.20110 | 17632 ft | 405 kts | 354° |
| 2026-04-24 19:38 | 45.00879 | 11.19607 | 16600 ft | 400 kts | 350° |
| 2026-04-24 19:38 | 45.03572 | 11.18718 | 15613 ft | 396 kts | 346° |
| 2026-04-24 19:38 | 45.06230 | 11.17793 | 14653 ft | 391 kts | 347° |
| 2026-04-24 19:38 | 45.08865 | 11.16911 | 13707 ft | 387 kts | 347° |
| 2026-04-24 19:39 | 45.11468 | 11.16052 | 12670 ft | 382 kts | 347° |
| 2026-04-24 19:39 | 45.14005 | 11.15195 | 11710 ft | 377 kts | 347° |
| 2026-04-24 19:39 | 45.16536 | 11.14334 | 11072 ft | 366 kts | 347° |
| 2026-04-24 19:39 | 45.18913 | 11.13530 | 11036 ft | 337 kts | 347° |
| 2026-04-24 19:40 | 45.21143 | 11.12782 | 11037 ft | 326 kts | 348° |
| 2026-04-24 19:40 | 45.23320 | 11.12058 | 11043 ft | 317 kts | 348° |
| 2026-04-24 19:40 | 45.25471 | 11.11351 | 11043 ft | 317 kts | 348° |
| 2026-04-24 19:40 | 45.27610 | 11.10657 | 11039 ft | 315 kts | 348° |
| 2026-04-24 19:41 | 45.29749 | 11.09971 | 11038 ft | 315 kts | 348° |
| 2026-04-24 19:41 | 45.31875 | 11.09161 | 11033 ft | 316 kts | 336° |
| 2026-04-24 19:41 | 45.33576 | 11.07216 | 11046 ft | 321 kts | 307° |
| 2026-04-24 19:41 | 45.34390 | 11.04298 | 11031 ft | 319 kts | 277° |
| 2026-04-24 19:42 | 45.34089 | 11.01319 | 11037 ft | 300 kts | 246° |
| 2026-04-24 19:42 | 45.32781 | 10.99077 | 11027 ft | 295 kts | 213° |
| 2026-04-24 19:42 | 45.30895 | 10.98144 | 10840 ft | 287 kts | 180° |
| 2026-04-24 19:42 | 45.28977 | 10.98739 | 10658 ft | 283 kts | 151° |
| 2026-04-24 19:43 | 45.27455 | 11.00388 | 10464 ft | 273 kts | 132° |
| 2026-04-24 19:43 | 45.26201 | 11.02374 | 10152 ft | 267 kts | 128° |
| 2026-04-24 19:43 | 45.25019 | 11.04383 | 9831 ft | 262 kts | 127° |
| 2026-04-24 19:43 | 45.23880 | 11.06348 | 9499 ft | 257 kts | 127° |
| 2026-04-24 19:44 | 45.22870 | 11.08381 | 9152 ft | 249 kts | 107° |
| 2026-04-24 19:44 | 45.22563 | 11.10750 | 8865 ft | 240 kts | 91° |
| 2026-04-24 19:44 | 45.22533 | 11.13097 | 8542 ft | 239 kts | 88° |
| 2026-04-24 19:44 | 45.22405 | 11.15429 | 8212 ft | 239 kts | 110° |
| 2026-04-24 19:45 | 45.21368 | 11.17255 | 8056 ft | 245 kts | 152° |
| 2026-04-24 19:45 | 45.19740 | 11.17792 | 7899 ft | 244 kts | 181° |
| 2026-04-24 19:45 | 45.18051 | 11.17543 | 7649 ft | 244 kts | 198° |
| 2026-04-24 19:45 | 45.16691 | 11.16238 | 7488 ft | 242 kts | 238° |
| 2026-04-24 19:46 | 45.16200 | 11.13994 | 7337 ft | 239 kts | 273° |
| 2026-04-24 19:46 | 45.16469 | 11.11684 | 7107 ft | 238 kts | 285° |
| 2026-04-24 19:46 | 45.16919 | 11.09444 | 6918 ft | 237 kts | 287° |
| 2026-04-24 19:46 | 45.17384 | 11.07178 | 6728 ft | 242 kts | 281° |
| 2026-04-24 19:47 | 45.17478 | 11.04777 | 6554 ft | 245 kts | 268° |
| 2026-04-24 19:47 | 45.17369 | 11.02381 | 6336 ft | 243 kts | 266° |
| 2026-04-24 19:47 | 45.17242 | 11.00018 | 6084 ft | 241 kts | 266° |
| 2026-04-24 19:47 | 45.17112 | 10.97666 | 5839 ft | 239 kts | 266° |
| 2026-04-24 19:48 | 45.16977 | 10.95302 | 5579 ft | 237 kts | 266° |
| 2026-04-24 19:48 | 45.16947 | 10.92990 | 5333 ft | 234 kts | 276° |
| 2026-04-24 19:48 | 45.17421 | 10.88465 | 4775 ft | 230 kts | 276° |
| 2026-04-24 19:49 | 45.17681 | 10.84005 | 4186 ft | 227 kts | 275° |
| 2026-04-24 19:49 | 45.17920 | 10.79881 | 3850 ft | 226 kts | 278° |
| 2026-04-24 19:50 | 45.19207 | 10.74235 | 3602 ft | 227 kts | 297° |
| 2026-04-24 19:50 | 45.20117 | 10.72424 | 3621 ft | 227 kts | 310° |
| 2026-04-24 19:51 | 45.22661 | 10.69804 | 3616 ft | 232 kts | 345° |
| 2026-04-24 19:51 | 45.24277 | 10.69665 | 3655 ft | 235 kts | 3° |
| 2026-04-24 19:52 | 45.27319 | 10.71282 | 3409 ft | 240 kts | 35° |
| 2026-04-24 19:52 | 45.28555 | 10.72853 | 3118 ft | 236 kts | 44° |
| 2026-04-24 19:52 | 45.29678 | 10.74495 | 2804 ft | 223 kts | 44° |
| 2026-04-24 19:52 | 45.30735 | 10.76027 | 2490 ft | 212 kts | 44° |
| 2026-04-24 19:53 | 45.31722 | 10.77462 | 2208 ft | 196 kts | 44° |
| 2026-04-24 19:53 | 45.32641 | 10.78796 | 1948 ft | 183 kts | 44° |
| 2026-04-24 19:53 | 45.34323 | 10.81234 | 1479 ft | 167 kts | 44° |
| 2026-04-24 19:54 | 45.35127 | 10.82404 | 1264 ft | 166 kts | 44° |
| 2026-04-24 19:54 | 45.35929 | 10.83570 | 1046 ft | 161 kts | 45° |
| 2026-04-24 19:54 | 45.36703 | 10.84690 | 840 ft | 160 kts | 45° |
| 2026-04-24 19:54 | 45.37482 | 10.85822 | 633 ft | 159 kts | 46° |
| 2026-04-24 19:55 | 45.37992 | 10.86564 | 466 ft | 159 kts | 46° |
| 2026-04-24 19:55 | 45.38985 | 10.88006 | 242 ft | 140 kts | 46° |
| 2026-04-24 19:55 | 45.39579 | 10.88865 | 239 ft | 102 kts | 46° |
| 2026-04-24 19:55 | 45.39939 | 10.89387 | 237 ft | 55 kts | 46° |
| 2026-04-24 19:56 | 45.40127 | 10.89662 | 239 ft | 33 kts | 45° |
| 2026-04-24 19:56 | 45.40262 | 10.89877 | 238 ft | 25 kts | 66° |
| 2026-04-24 19:56 | 45.40305 | 10.90089 | 237 ft | 20 kts | 76° |
| 2026-04-24 19:56 | 45.40328 | 10.90231 | 236 ft | 7 kts | 77° |
| 2026-04-24 19:57 | 45.40330 | 10.90273 | 236 ft | 2 kts | 105° |
| 2026-04-24 19:57 | 45.40328 | 10.90281 | 236 ft | 2 kts | 117° |
| 2026-04-24 19:57 | 45.40310 | 10.90308 | 236 ft | 6 kts | 134° |
| 2026-04-24 19:57 | 45.40275 | 10.90358 | 237 ft | 9 kts | 134° |
| 2026-04-24 19:58 | 45.40271 | 10.90431 | 237 ft | 6 kts | 64° |
| 2026-04-24 19:58 | 45.40274 | 10.90468 | 237 ft | 3 kts | 103° |
| 2026-04-24 19:58 | 45.40258 | 10.90499 | 237 ft | 5 kts | 135° |
| 2026-04-24 19:58 | 45.40247 | 10.90514 | 237 ft | 0 kts | 136° |
| 2026-04-24 19:59 | 45.40246 | 10.90515 | 237 ft | 0 kts | 136° |